createdAt,value
2019-01-15T00:00:16.068Z,3.10
2019-01-15T00:02:44.594Z,3.23
2019-01-15T00:05:13.249Z,3.10
2019-01-15T00:07:41.712Z,3.00
2019-01-15T00:10:10.819Z,3.70
2019-01-15T00:12:39.250Z,3.40
2019-01-15T00:15:11.341Z,3.27
2019-01-15T00:17:39.776Z,2.77
2019-01-15T00:20:13.388Z,2.60
2019-01-15T00:22:41.918Z,3.40
2019-01-15T00:25:10.786Z,3.30
2019-01-15T00:27:39.314Z,2.90
2019-01-15T00:30:12.714Z,3.15
2019-01-15T00:32:41.384Z,3.08
2019-01-15T00:35:10.112Z,3.27
2019-01-15T00:37:38.539Z,3.22
2019-01-15T00:40:10.394Z,3.40
2019-01-15T00:42:38.899Z,3.30
2019-01-15T00:45:09.232Z,3.55
2019-01-15T00:47:37.651Z,3.20
2019-01-15T00:50:12.217Z,2.92
2019-01-15T00:52:40.654Z,3.50
2019-01-15T00:55:11.010Z,3.00
2019-01-15T00:57:39.431Z,2.50
2019-01-15T01:00:11.204Z,3.10
2019-01-15T01:02:39.706Z,2.87
2019-01-15T01:05:08.565Z,2.70
2019-01-15T01:07:37.060Z,2.83
2019-01-15T01:10:08.765Z,3.17
2019-01-15T01:12:37.217Z,2.50
2019-01-15T01:15:08.804Z,3.00
2019-01-15T01:17:37.216Z,2.60
2019-01-15T01:20:08.924Z,2.50
2019-01-15T01:22:37.409Z,2.77
2019-01-15T01:25:08.788Z,2.27
2019-01-15T01:27:37.320Z,2.40
2019-01-15T01:30:08.883Z,2.60
2019-01-15T01:32:37.356Z,2.30
2019-01-15T01:35:06.840Z,2.10
2019-01-15T01:37:35.262Z,2.22
2019-01-15T01:40:05.601Z,2.45
2019-01-15T01:42:34.022Z,2.10
2019-01-15T01:45:02.965Z,1.80
2019-01-15T01:47:31.417Z,1.95
2019-01-15T01:49:59.828Z,2.00
2019-01-15T01:52:28.274Z,2.20
2019-01-15T01:54:56.737Z,2.00
2019-01-15T01:57:25.168Z,2.30
2019-01-15T01:59:53.597Z,2.00
2019-01-15T02:02:22.062Z,2.20
2019-01-15T02:04:50.492Z,2.20
2019-01-15T02:07:18.932Z,2.10
2019-01-15T02:09:47.341Z,2.17
2019-01-15T02:12:15.835Z,2.43
2019-01-15T02:14:44.300Z,2.00
2019-01-15T02:17:12.732Z,2.20
2019-01-15T02:19:41.218Z,2.12
2019-01-15T02:22:09.640Z,2.30
2019-01-15T02:24:38.327Z,2.40
2019-01-15T02:27:08.409Z,2.17
2019-01-15T02:29:36.832Z,2.20
2019-01-15T02:32:05.343Z,2.42
2019-01-15T02:34:33.761Z,2.40
2019-01-15T02:37:02.196Z,2.20
2019-01-15T02:39:30.622Z,2.20
2019-01-15T02:41:59.032Z,2.20
2019-01-15T02:44:27.457Z,2.80
2019-01-15T02:46:55.886Z,2.90
2019-01-15T02:49:24.329Z,2.60
2019-01-15T02:51:52.734Z,2.40
2019-01-15T02:54:21.179Z,2.50
2019-01-15T02:56:49.585Z,2.30
2019-01-15T02:59:18.016Z,2.17
2019-01-15T03:01:46.469Z,2.70
2019-01-15T03:04:16.269Z,2.65
2019-01-15T03:06:44.741Z,2.47
2019-01-15T03:09:13.258Z,2.30
2019-01-15T03:11:41.671Z,2.33
2019-01-15T03:14:10.117Z,2.40
2019-01-15T03:16:38.511Z,2.37
2019-01-15T03:19:07.032Z,2.40
2019-01-15T03:21:35.439Z,2.98
2019-01-15T03:24:04.235Z,2.67
2019-01-15T03:26:32.665Z,2.30
2019-01-15T03:29:01.081Z,2.50
2019-01-15T03:31:29.489Z,2.60
2019-01-15T03:33:57.924Z,2.60
2019-01-15T03:36:26.340Z,2.83
2019-01-15T03:38:54.745Z,2.40
2019-01-15T03:41:23.176Z,2.50
2019-01-15T03:43:51.609Z,2.37
2019-01-15T03:46:20.055Z,2.00
2019-01-15T03:48:48.457Z,2.30
2019-01-15T03:51:16.883Z,2.33
2019-01-15T03:53:45.297Z,2.50
2019-01-15T03:56:13.788Z,2.30
2019-01-15T03:58:42.290Z,2.50
2019-01-15T04:01:10.720Z,2.83
2019-01-15T04:03:39.218Z,2.30
2019-01-15T04:06:07.652Z,2.30
2019-01-15T04:08:36.073Z,2.40
2019-01-15T04:11:04.559Z,2.25
2019-01-15T04:13:32.983Z,2.90
2019-01-15T04:16:01.449Z,2.40
2019-01-15T04:18:29.902Z,2.20
2019-01-15T04:20:58.356Z,2.17
2019-01-15T04:23:26.778Z,2.00
2019-01-15T04:25:55.213Z,2.23
2019-01-15T04:28:23.648Z,2.20
2019-01-15T04:30:52.100Z,2.60
2019-01-15T04:33:20.503Z,2.10
2019-01-15T04:35:48.924Z,2.00
2019-01-15T04:38:17.352Z,2.30
2019-01-15T04:40:45.791Z,2.25
2019-01-15T04:43:19.589Z,2.17
2019-01-15T04:45:44.392Z,2.50
2019-01-15T04:48:12.816Z,2.27
2019-01-15T04:50:41.243Z,2.03
2019-01-15T04:53:09.685Z,2.90
2019-01-15T04:55:39.807Z,2.50
2019-01-15T04:58:08.333Z,2.20
2019-01-15T05:00:36.753Z,2.50
2019-01-15T05:03:05.985Z,2.50
2019-01-15T05:05:34.415Z,2.80
2019-01-15T05:08:02.846Z,2.72
2019-01-15T05:10:31.261Z,2.30
2019-01-15T05:12:59.692Z,2.70
2019-01-15T05:15:28.184Z,2.50
2019-01-15T05:17:56.686Z,2.70
2019-01-15T05:20:25.926Z,2.98
2019-01-15T05:22:54.419Z,3.20
2019-01-15T05:25:23.086Z,3.12
2019-01-15T05:27:51.528Z,2.70
2019-01-15T05:30:27.409Z,2.62
2019-01-15T05:32:55.915Z,2.60
2019-01-15T05:35:24.573Z,3.10
2019-01-15T05:37:53.000Z,3.02
2019-01-15T05:40:21.600Z,2.60
2019-01-15T05:42:50.185Z,2.80
2019-01-15T05:45:24.841Z,2.60
2019-01-15T05:47:55.136Z,2.65
2019-01-15T05:50:31.001Z,2.80
2019-01-15T05:52:59.402Z,2.80
2019-01-15T05:55:27.895Z,2.40
2019-01-15T05:57:56.318Z,2.90
2019-01-15T06:00:24.789Z,2.55
2019-01-15T06:02:53.280Z,2.15
2019-01-15T06:05:21.794Z,2.50
2019-01-15T06:07:50.224Z,2.73
2019-01-15T06:10:18.647Z,3.00
2019-01-15T06:12:47.087Z,3.70
2019-01-15T06:15:16.775Z,3.90
2019-01-15T06:17:45.465Z,3.70
2019-01-15T06:20:21.254Z,2.60
2019-01-15T06:22:49.997Z,2.98
2019-01-15T06:25:18.434Z,3.00
2019-01-15T06:27:47.951Z,2.70
2019-01-15T06:30:21.097Z,2.55
2019-01-15T06:32:49.613Z,2.70
2019-01-15T06:35:18.266Z,2.72
2019-01-15T06:37:46.779Z,2.90
2019-01-15T06:40:17.129Z,2.50
2019-01-15T06:42:45.584Z,3.10
2019-01-15T06:45:17.097Z,2.80
2019-01-15T06:47:45.544Z,2.60
2019-01-15T06:50:15.304Z,3.08
2019-01-15T06:52:44.477Z,3.10
2019-01-15T06:55:18.849Z,3.10
2019-01-15T06:57:47.430Z,3.07
2019-01-15T07:00:29.618Z,3.20
2019-01-15T07:02:58.795Z,3.20
2019-01-15T07:05:27.289Z,3.10
2019-01-15T07:07:55.984Z,3.35
2019-01-15T07:10:27.395Z,3.42
2019-01-15T07:12:55.840Z,3.50
2019-01-15T07:15:24.289Z,3.30
2019-01-15T07:17:52.822Z,3.25
2019-01-15T07:20:21.269Z,3.60
2019-01-15T07:22:49.743Z,3.80
2019-01-15T07:25:26.889Z,3.10
2019-01-15T07:27:55.442Z,3.33
2019-01-15T07:30:32.854Z,3.72
2019-01-15T07:33:01.370Z,3.45
2019-01-15T07:35:29.787Z,4.13
2019-01-15T07:37:58.223Z,3.72
2019-01-15T07:40:28.177Z,3.60
2019-01-15T07:42:56.790Z,3.17
2019-01-15T07:45:25.212Z,3.98
2019-01-15T07:47:53.624Z,3.60
2019-01-15T07:50:22.345Z,3.90
2019-01-15T07:52:50.838Z,3.70
2019-01-15T07:55:21.219Z,3.35
2019-01-15T07:57:49.644Z,4.00
2019-01-15T08:00:20.676Z,3.30
2019-01-15T08:02:49.923Z,3.60
2019-01-15T08:05:20.501Z,4.00
2019-01-15T08:07:49.048Z,3.87
2019-01-15T08:10:18.519Z,3.30
2019-01-15T08:12:47.405Z,3.65
2019-01-15T08:15:18.594Z,3.65
2019-01-15T08:17:47.034Z,3.50
2019-01-15T08:20:15.617Z,3.77
2019-01-15T08:22:44.253Z,3.70
2019-01-15T08:25:14.909Z,3.70
2019-01-15T08:27:43.526Z,3.70
2019-01-15T08:30:15.292Z,3.22
2019-01-15T08:32:43.754Z,3.40
2019-01-15T08:35:12.321Z,3.40
2019-01-15T08:37:40.851Z,3.20
2019-01-15T08:40:12.588Z,3.02
2019-01-15T08:42:41.036Z,3.40
2019-01-15T08:45:12.647Z,3.50
2019-01-15T08:47:50.238Z,4.05
2019-01-15T08:50:24.781Z,3.72
2019-01-15T08:52:53.341Z,3.90
2019-01-15T08:55:21.772Z,3.70
2019-01-15T08:57:50.443Z,3.20
2019-01-15T09:00:19.025Z,3.60
2019-01-15T09:02:47.497Z,3.37
2019-01-15T09:05:15.993Z,3.90
2019-01-15T09:07:44.659Z,3.40
2019-01-15T09:10:17.976Z,3.50
2019-01-15T09:12:46.859Z,3.60
2019-01-15T09:15:20.837Z,4.30
2019-01-15T09:17:49.396Z,4.15
2019-01-15T09:20:19.784Z,4.58
2019-01-15T09:22:48.266Z,4.33
2019-01-15T09:25:17.030Z,3.45
2019-01-15T09:27:45.546Z,3.80
2019-01-15T09:30:19.356Z,3.60
2019-01-15T09:32:47.772Z,3.80
2019-01-15T09:35:16.381Z,3.70
2019-01-15T09:37:46.249Z,3.70
2019-01-15T09:40:19.610Z,3.65
2019-01-15T09:42:48.193Z,3.70
2019-01-15T09:45:18.670Z,3.40
2019-01-15T09:47:51.708Z,3.40
2019-01-15T09:50:20.143Z,3.80
2019-01-15T09:52:49.118Z,3.62
2019-01-15T09:55:17.607Z,3.05
2019-01-15T09:57:46.132Z,2.98
2019-01-15T10:00:17.564Z,3.00
2019-01-15T10:02:46.225Z,2.92
2019-01-15T10:05:14.814Z,3.25
2019-01-15T10:07:43.312Z,3.02
2019-01-15T10:10:13.972Z,3.10
2019-01-15T10:12:42.453Z,2.70
2019-01-15T10:15:14.201Z,2.90
2019-01-15T10:17:42.642Z,2.60
2019-01-15T10:20:12.940Z,2.58
2019-01-15T10:22:41.600Z,2.60
2019-01-15T10:25:12.124Z,2.50
2019-01-15T10:27:41.073Z,2.80
2019-01-15T10:30:23.481Z,2.85
2019-01-15T10:32:54.993Z,2.30
2019-01-15T10:35:26.487Z,2.70
2019-01-15T10:37:54.985Z,2.58
2019-01-15T10:40:23.392Z,2.70
2019-01-15T10:42:51.909Z,2.50
2019-01-15T10:45:20.324Z,2.30
2019-01-15T10:47:48.766Z,2.33
2019-01-15T10:50:17.457Z,2.60
2019-01-15T10:52:45.918Z,2.42
2019-01-15T10:55:14.536Z,2.92
2019-01-15T10:57:43.020Z,2.55
2019-01-15T11:00:13.400Z,2.33
2019-01-15T11:02:41.830Z,2.60
2019-01-15T11:05:12.070Z,2.08
2019-01-15T11:07:40.528Z,2.40
2019-01-15T11:10:14.971Z,2.10
2019-01-15T11:12:43.474Z,2.35
2019-01-15T11:15:12.100Z,2.02
2019-01-15T11:17:40.541Z,2.20
2019-01-15T11:20:12.049Z,2.00
2019-01-15T11:22:40.631Z,2.35
2019-01-15T11:25:09.296Z,2.20
2019-01-15T11:27:37.729Z,2.22
2019-01-15T11:30:09.415Z,2.42
2019-01-15T11:32:37.917Z,2.20
2019-01-15T11:35:09.279Z,2.10
2019-01-15T11:37:37.817Z,2.08
2019-01-15T11:40:16.699Z,2.30
2019-01-15T11:42:45.257Z,2.40
2019-01-15T11:45:16.212Z,2.20
2019-01-15T11:47:44.826Z,2.00
2019-01-15T11:50:18.705Z,2.35
2019-01-15T11:52:47.121Z,2.40
2019-01-15T11:55:15.598Z,2.20
2019-01-15T11:57:44.035Z,2.20
2019-01-15T12:00:16.906Z,2.10
2019-01-15T12:02:46.791Z,2.40
2019-01-15T12:05:31.616Z,2.40
2019-01-15T12:08:13.484Z,2.30
2019-01-15T12:10:43.607Z,2.80
2019-01-15T12:13:13.669Z,2.20
2019-01-15T12:15:46.243Z,2.70
2019-01-15T12:18:22.605Z,1.83
2019-01-15T12:20:52.761Z,2.20
2019-01-15T12:23:28.835Z,2.77
2019-01-15T12:25:58.906Z,2.10
2019-01-15T12:28:40.606Z,1.90
2019-01-15T12:31:22.747Z,2.27
2019-01-15T12:34:01.866Z,2.27
2019-01-15T12:36:48.556Z,3.00
2019-01-15T12:39:34.860Z,2.73
2019-01-15T12:42:07.738Z,4.10
2019-01-15T12:44:40.362Z,2.70
2019-01-15T12:47:16.092Z,2.83
2019-01-15T12:49:51.824Z,3.33
2019-01-15T12:52:21.900Z,3.17
2019-01-15T12:55:10.351Z,3.50
2019-01-15T12:57:56.552Z,2.63
2019-01-15T13:00:33.053Z,4.53
2019-01-15T13:03:17.916Z,3.03
2019-01-15T13:05:51.013Z,3.13
2019-01-15T13:08:21.098Z,3.70
2019-01-15T13:10:54.053Z,4.20
2019-01-15T13:13:29.989Z,3.20
2019-01-15T13:16:05.822Z,3.37
2019-01-15T13:18:41.332Z,3.53
2019-01-15T13:21:20.316Z,3.50
2019-01-15T13:24:06.597Z,3.03
2019-01-15T13:26:39.536Z,2.90
2019-01-15T13:29:09.596Z,3.77
2019-01-15T13:31:42.435Z,3.40
2019-01-15T13:34:12.584Z,2.80
2019-01-15T13:36:48.648Z,2.87
2019-01-15T13:39:18.720Z,3.67
2019-01-15T13:41:48.900Z,3.50
2019-01-15T13:44:37.167Z,4.17
2019-01-15T13:47:19.029Z,4.87
2019-01-15T13:49:55.084Z,3.67
2019-01-15T13:52:27.895Z,2.43
2019-01-15T13:55:09.820Z,2.77
2019-01-15T13:57:48.636Z,3.97
2019-01-15T14:00:37.513Z,3.47
2019-01-15T14:03:10.337Z,2.83
2019-01-15T14:05:56.925Z,3.90
2019-01-15T14:08:27.011Z,3.60
2019-01-15T14:11:14.957Z,4.33
2019-01-15T14:13:47.869Z,3.70
2019-01-15T14:16:29.827Z,3.20
2019-01-15T14:19:11.887Z,2.93
2019-01-15T14:21:58.494Z,3.27
2019-01-15T14:24:37.872Z,3.93
2019-01-15T14:27:10.779Z,3.30
2019-01-15T14:29:57.135Z,4.03
2019-01-15T14:32:27.203Z,3.77
2019-01-15T14:35:13.543Z,3.90
2019-01-15T14:38:00.240Z,3.63
2019-01-15T14:40:39.431Z,4.00
2019-01-15T14:43:25.971Z,4.00
2019-01-15T14:46:02.076Z,4.50
2019-01-15T14:48:35.275Z,4.40
2019-01-15T14:51:08.387Z,4.12
2019-01-15T14:53:38.445Z,4.20
2019-01-15T14:56:11.526Z,4.33
2019-01-15T14:58:56.622Z,5.00
2019-01-15T15:01:26.707Z,4.80
2019-01-15T15:03:59.620Z,4.22
2019-01-15T15:06:44.570Z,5.10
2019-01-15T15:09:14.628Z,4.50
2019-01-15T15:11:50.552Z,4.40
2019-01-15T15:14:32.492Z,3.80
2019-01-15T15:17:11.302Z,4.10
2019-01-15T15:20:01.247Z,4.15
2019-01-15T15:22:47.721Z,4.10
2019-01-15T15:25:20.540Z,3.12
2019-01-15T15:27:59.717Z,4.50
2019-01-15T15:30:38.631Z,5.50
2019-01-15T15:33:20.386Z,3.40
2019-01-15T15:35:50.501Z,4.27
2019-01-15T15:38:32.211Z,4.07
2019-01-15T15:41:17.415Z,3.30
2019-01-15T15:43:53.507Z,3.40
2019-01-15T15:46:26.529Z,3.17
2019-01-15T15:49:08.399Z,4.20
2019-01-15T15:51:41.472Z,4.10
2019-01-15T15:54:14.365Z,4.27
2019-01-15T15:57:00.934Z,4.00
2019-01-15T15:59:40.154Z,4.60
2019-01-15T16:02:22.090Z,3.37
2019-01-15T16:05:01.022Z,3.60
2019-01-15T16:07:31.140Z,3.97
2019-01-15T16:10:13.609Z,3.57
2019-01-15T16:12:46.352Z,3.53
2019-01-15T16:15:22.708Z,2.97
2019-01-15T16:17:52.802Z,3.80
2019-01-15T16:20:25.608Z,3.30
2019-01-15T16:23:01.469Z,4.50
2019-01-15T16:25:31.591Z,3.77
2019-01-15T16:28:18.004Z,4.10
2019-01-15T16:30:51.049Z,3.97
2019-01-15T16:33:38.896Z,4.20
2019-01-15T16:36:09.048Z,4.70
2019-01-15T16:38:51.192Z,4.10
2019-01-15T16:41:24.054Z,4.70
2019-01-15T16:44:09.218Z,4.03
2019-01-15T16:46:48.408Z,4.53
2019-01-15T16:49:18.481Z,4.83
2019-01-15T16:52:07.331Z,5.10
2019-01-15T16:54:40.117Z,5.10
2019-01-15T16:57:22.397Z,4.40
2019-01-15T17:00:09.005Z,4.97
2019-01-15T17:02:45.074Z,4.93
2019-01-15T17:05:30.746Z,4.70
2019-01-15T17:08:15.832Z,5.43
2019-01-15T17:10:45.979Z,5.83
2019-01-15T17:13:18.549Z,4.90
2019-01-15T17:16:00.386Z,6.30
2019-01-15T17:18:33.410Z,4.67
2019-01-15T17:21:18.729Z,5.60
2019-01-15T17:23:51.591Z,5.20
2019-01-15T17:26:37.873Z,5.37
2019-01-15T17:29:13.892Z,4.80
2019-01-15T17:31:56.070Z,5.60
2019-01-15T17:34:29.327Z,4.93
2019-01-15T17:37:08.494Z,5.27
2019-01-15T17:39:44.736Z,5.43
2019-01-15T17:42:17.910Z,5.30
2019-01-15T17:44:48.181Z,5.00
2019-01-15T17:47:18.423Z,5.33
2019-01-15T17:50:04.873Z,5.67
2019-01-15T17:52:50.002Z,5.30
2019-01-15T17:55:31.815Z,5.37
2019-01-15T17:58:20.041Z,5.10
2019-01-15T18:00:50.191Z,4.97
2019-01-15T18:03:20.326Z,5.33
2019-01-15T18:05:53.462Z,5.53
2019-01-15T18:08:32.209Z,5.10
2019-01-15T18:11:02.323Z,4.60
2019-01-15T18:13:35.152Z,5.10
2019-01-15T18:16:08.180Z,5.40
2019-01-15T18:18:38.278Z,5.10
2019-01-15T18:21:14.361Z,5.50
2019-01-15T18:23:44.428Z,6.30
2019-01-15T18:26:31.270Z,5.60
2019-01-15T18:29:13.506Z,5.50
2019-01-15T18:31:50.100Z,5.43
2019-01-15T18:34:22.982Z,4.93
2019-01-15T18:37:02.160Z,5.50
2019-01-15T18:39:32.246Z,6.00
2019-01-15T18:42:02.600Z,4.83
2019-01-15T18:44:32.881Z,5.60
2019-01-15T18:47:19.322Z,6.40
2019-01-15T18:49:58.510Z,5.80
2019-01-15T18:52:40.545Z,5.50
2019-01-15T18:55:16.511Z,5.03
2019-01-15T18:57:58.677Z,5.10
2019-01-15T19:00:28.816Z,4.93
2019-01-15T19:02:58.916Z,4.43
2019-01-15T19:05:35.190Z,5.30
2019-01-15T19:08:05.513Z,5.40
2019-01-15T19:10:47.642Z,4.20
2019-01-15T19:13:33.013Z,5.17
2019-01-15T19:16:09.197Z,4.57
2019-01-15T19:18:48.220Z,4.73
2019-01-15T19:21:18.310Z,4.40
2019-01-15T19:24:05.378Z,4.90
2019-01-15T19:26:35.680Z,5.20
2019-01-15T19:29:06.045Z,4.83
2019-01-15T19:31:42.448Z,4.63
2019-01-15T19:34:12.784Z,5.00
2019-01-15T19:36:51.754Z,5.37
2019-01-15T19:39:25.068Z,4.50
2019-01-15T19:42:11.754Z,4.97
2019-01-15T19:44:47.842Z,4.30
2019-01-15T19:47:18.103Z,5.60
2019-01-15T19:49:54.193Z,5.07
2019-01-15T19:52:39.782Z,5.67
2019-01-15T19:55:10.156Z,5.10
2019-01-15T19:57:46.111Z,4.80
2019-01-15T20:00:17.494Z,5.47
2019-01-15T20:02:50.157Z,4.80
2019-01-15T20:05:29.480Z,4.90
2019-01-15T20:08:02.218Z,5.53
2019-01-15T20:10:41.189Z,5.93
2019-01-15T20:13:11.279Z,5.00
2019-01-15T20:15:58.085Z,5.23
2019-01-15T20:18:40.198Z,5.80
2019-01-15T20:21:25.757Z,5.30
2019-01-15T20:24:01.844Z,5.20
2019-01-15T20:26:48.524Z,6.37
2019-01-15T20:29:21.330Z,6.00
2019-01-15T20:32:03.739Z,6.00
2019-01-15T20:34:43.273Z,5.50
2019-01-15T20:37:22.750Z,4.57
2019-01-15T20:39:52.961Z,6.33
2019-01-15T20:42:38.571Z,5.40
2019-01-15T20:45:16.006Z,5.00
2019-01-15T20:48:04.366Z,5.47
2019-01-15T20:50:34.458Z,5.10
2019-01-15T20:53:13.581Z,5.87
2019-01-15T20:55:52.843Z,5.70
2019-01-15T20:58:23.323Z,4.70
2019-01-15T21:01:10.149Z,5.60
2019-01-15T21:03:40.208Z,5.37
2019-01-15T21:06:16.722Z,5.20
2019-01-15T21:09:03.057Z,5.40
2019-01-15T21:11:49.706Z,4.47
2019-01-15T21:14:36.155Z,5.47
2019-01-15T21:17:06.379Z,4.93
2019-01-15T21:19:48.767Z,4.67
2019-01-15T21:22:34.156Z,4.77
2019-01-15T21:25:07.112Z,3.90
2019-01-15T21:27:42.904Z,3.77
2019-01-15T21:30:15.307Z,4.23
2019-01-15T21:33:01.682Z,5.20
2019-01-15T21:35:31.879Z,4.00
2019-01-15T21:38:07.472Z,4.13
2019-01-15T21:40:55.900Z,4.60
2019-01-15T21:43:31.807Z,4.27
2019-01-15T21:46:01.954Z,4.23
2019-01-15T21:48:47.107Z,4.30
2019-01-15T21:51:23.067Z,4.37
2019-01-15T21:54:09.668Z,5.23
2019-01-15T21:56:45.606Z,4.20
2019-01-15T21:59:15.762Z,4.43
2019-01-15T22:01:45.847Z,4.90
2019-01-15T22:04:15.938Z,4.10
2019-01-15T22:06:55.039Z,4.30
2019-01-15T22:09:27.930Z,4.20
2019-01-15T22:11:57.977Z,4.43
2019-01-15T22:14:43.109Z,4.80
2019-01-15T22:17:16.087Z,4.40
2019-01-15T22:19:58.147Z,4.00
2019-01-15T22:22:33.752Z,4.30
2019-01-15T22:25:22.405Z,4.00
2019-01-15T22:27:52.465Z,3.90
2019-01-15T22:30:35.053Z,3.43
2019-01-15T22:33:14.272Z,3.87
2019-01-15T22:36:02.876Z,3.80
2019-01-15T22:38:48.089Z,4.00
2019-01-15T22:41:18.165Z,3.83
2019-01-15T22:43:51.274Z,4.13
2019-01-15T22:46:21.425Z,3.40
2019-01-15T22:48:51.625Z,3.63
2019-01-15T22:51:21.724Z,3.00
2019-01-15T22:53:57.397Z,3.70
2019-01-15T22:56:27.479Z,3.33
2019-01-15T22:58:57.549Z,2.90
2019-01-15T23:01:42.727Z,3.30
2019-01-15T23:04:24.770Z,3.70
2019-01-15T23:07:07.133Z,3.30
2019-01-15T23:09:37.276Z,4.23
2019-01-15T23:12:13.409Z,3.87
2019-01-15T23:14:43.466Z,3.33
2019-01-15T23:17:13.610Z,4.10
2019-01-15T23:20:00.183Z,3.63
2019-01-15T23:22:45.357Z,4.50
2019-01-15T23:25:18.713Z,3.70
2019-01-15T23:27:48.848Z,3.07
2019-01-15T23:30:19.170Z,3.80
2019-01-15T23:32:49.272Z,3.70
2019-01-15T23:35:19.405Z,3.30
2019-01-15T23:38:05.955Z,3.67
2019-01-15T23:40:44.815Z,4.20
2019-01-15T23:43:27.253Z,4.70
2019-01-15T23:46:03.306Z,5.13
2019-01-15T23:48:42.040Z,4.03
2019-01-15T23:51:28.518Z,4.43
2019-01-15T23:54:01.316Z,4.23
2019-01-15T23:56:37.180Z,3.60
2019-01-15T23:59:13.038Z,4.27
